sensor_id;sensor_type;location;lat;lon;timestamp;pressure;altitude;pressure_sealevel;temperature;humidity
18533;BME280;9396;51.510;11.934;2023-08-24T00:01:19;100764.94;;;19.53;97.52
18533;BME280;9396;51.510;11.934;2023-08-24T00:03:46;100756.03;;;19.52;97.37
18533;BME280;9396;51.510;11.934;2023-08-24T00:06:13;100765.38;;;19.50;97.04
18533;BME280;9396;51.510;11.934;2023-08-24T00:08:39;100765.56;;;19.48;97.44
18533;BME280;9396;51.510;11.934;2023-08-24T00:11:06;100754.97;;;19.47;97.25
18533;BME280;9396;51.510;11.934;2023-08-24T00:13:33;100758.69;;;19.46;97.92
18533;BME280;9396;51.510;11.934;2023-08-24T00:16:01;100759.34;;;19.48;97.95
18533;BME280;9396;51.510;11.934;2023-08-24T00:18:29;100764.94;;;19.46;97.86
18533;BME280;9396;51.510;11.934;2023-08-24T00:20:56;100757.47;;;19.42;97.93
18533;BME280;9396;51.510;11.934;2023-08-24T00:23:22;100758.91;;;19.38;98.42
18533;BME280;9396;51.510;11.934;2023-08-24T00:25:49;100756.78;;;19.33;97.92
18533;BME280;9396;51.510;11.934;2023-08-24T00:28:16;100758.88;;;19.31;97.44
18533;BME280;9396;51.510;11.934;2023-08-24T00:30:42;100759.44;;;19.27;97.55
18533;BME280;9396;51.510;11.934;2023-08-24T00:33:10;100754.25;;;19.25;97.80
18533;BME280;9396;51.510;11.934;2023-08-24T00:35:37;100757.34;;;19.22;98.14
18533;BME280;9396;51.510;11.934;2023-08-24T00:38:04;100754.59;;;19.15;98.49
18533;BME280;9396;51.510;11.934;2023-08-24T00:40:30;100757.28;;;19.09;98.77
18533;BME280;9396;51.510;11.934;2023-08-24T00:42:57;100757.06;;;19.10;99.24
18533;BME280;9396;51.510;11.934;2023-08-24T00:45:24;100754.16;;;19.12;99.45
18533;BME280;9396;51.510;11.934;2023-08-24T00:47:51;100743.19;;;19.13;99.08
18533;BME280;9396;51.510;11.934;2023-08-24T00:50:19;100748.97;;;19.10;99.04
18533;BME280;9396;51.510;11.934;2023-08-24T00:52:47;100743.56;;;19.04;99.41
18533;BME280;9396;51.510;11.934;2023-08-24T00:55:16;100747.28;;;19.03;99.42
18533;BME280;9396;51.510;11.934;2023-08-24T00:57:43;100753.94;;;19.07;99.78
18533;BME280;9396;51.510;11.934;2023-08-24T01:00:10;100751.25;;;19.07;99.74
18533;BME280;9396;51.510;11.934;2023-08-24T01:02:37;100739.59;;;19.00;99.71
18533;BME280;9396;51.510;11.934;2023-08-24T01:05:04;100739.16;;;18.96;99.90
18533;BME280;9396;51.510;11.934;2023-08-24T01:07:33;100750.59;;;18.98;100.00
18533;BME280;9396;51.510;11.934;2023-08-24T01:10:02;100743.13;;;19.00;99.91
18533;BME280;9396;51.510;11.934;2023-08-24T01:12:37;100744.59;;;19.03;99.99
18533;BME280;9396;51.510;11.934;2023-08-24T01:15:13;100751.22;;;19.00;99.22
18533;BME280;9396;51.510;11.934;2023-08-24T01:17:42;100751.88;;;19.02;98.64
18533;BME280;9396;51.510;11.934;2023-08-24T01:20:10;100743.78;;;19.02;98.67
18533;BME280;9396;51.510;11.934;2023-08-24T01:22:45;100744.59;;;19.03;98.88
18533;BME280;9396;51.510;11.934;2023-08-24T01:25:16;100745.63;;;19.02;98.48
18533;BME280;9396;51.510;11.934;2023-08-24T01:27:45;100749.38;;;19.01;98.26
18533;BME280;9396;51.510;11.934;2023-08-24T01:30:14;100749.53;;;18.99;98.64
18533;BME280;9396;51.510;11.934;2023-08-24T01:32:41;100748.31;;;18.95;98.90
18533;BME280;9396;51.510;11.934;2023-08-24T01:35:09;100754.06;;;18.92;98.62
18533;BME280;9396;51.510;11.934;2023-08-24T01:37:36;100757.19;;;18.89;98.76
18533;BME280;9396;51.510;11.934;2023-08-24T01:40:05;100756.53;;;18.87;98.46
18533;BME280;9396;51.510;11.934;2023-08-24T01:42:35;100754.03;;;18.86;98.21
18533;BME280;9396;51.510;11.934;2023-08-24T01:45:06;100751.56;;;18.84;98.10
18533;BME280;9396;51.510;11.934;2023-08-24T01:47:35;100747.38;;;18.82;98.39
18533;BME280;9396;51.510;11.934;2023-08-24T01:50:04;100746.56;;;18.81;98.51
18533;BME280;9396;51.510;11.934;2023-08-24T01:52:31;100752.34;;;18.78;98.22
18533;BME280;9396;51.510;11.934;2023-08-24T01:54:59;100756.06;;;18.77;98.53
18533;BME280;9396;51.510;11.934;2023-08-24T01:57:25;100746.50;;;18.75;98.64
18533;BME280;9396;51.510;11.934;2023-08-24T01:59:52;100742.31;;;18.66;98.97
18533;BME280;9396;51.510;11.934;2023-08-24T02:02:20;100738.53;;;18.60;100.00
18533;BME280;9396;51.510;11.934;2023-08-24T02:04:47;100736.78;;;18.46;100.00
18533;BME280;9396;51.510;11.934;2023-08-24T02:07:14;100739.25;;;18.48;100.00
18533;BME280;9396;51.510;11.934;2023-08-24T02:09:40;100738.91;;;18.51;100.00
18533;BME280;9396;51.510;11.934;2023-08-24T02:12:07;100732.91;;;18.55;100.00
18533;BME280;9396;51.510;11.934;2023-08-24T02:14:34;100731.28;;;18.61;100.00
18533;BME280;9396;51.510;11.934;2023-08-24T02:17:00;100728.38;;;18.62;100.00
18533;BME280;9396;51.510;11.934;2023-08-24T02:19:30;100720.72;;;18.59;100.00
18533;BME280;9396;51.510;11.934;2023-08-24T02:21:56;100718.66;;;18.61;100.00
18533;BME280;9396;51.510;11.934;2023-08-24T02:24:23;100728.00;;;18.65;100.00
18533;BME280;9396;51.510;11.934;2023-08-24T02:26:50;100719.72;;;18.67;100.00
18533;BME280;9396;51.510;11.934;2023-08-24T02:29:16;100723.22;;;18.67;100.00
18533;BME280;9396;51.510;11.934;2023-08-24T02:31:43;100724.69;;;18.63;100.00
18533;BME280;9396;51.510;11.934;2023-08-24T02:34:10;100717.81;;;18.61;100.00
18533;BME280;9396;51.510;11.934;2023-08-24T02:36:38;100726.09;;;18.59;100.00
18533;BME280;9396;51.510;11.934;2023-08-24T02:39:04;100722.75;;;18.57;100.00
18533;BME280;9396;51.510;11.934;2023-08-24T02:41:33;100727.31;;;18.57;99.69
18533;BME280;9396;51.510;11.934;2023-08-24T02:44:00;100716.94;;;18.54;99.36
18533;BME280;9396;51.510;11.934;2023-08-24T02:46:27;100724.38;;;18.52;99.26
18533;BME280;9396;51.510;11.934;2023-08-24T02:48:54;100716.91;;;18.47;99.34
18533;BME280;9396;51.510;11.934;2023-08-24T02:51:21;100712.94;;;18.43;99.60
18533;BME280;9396;51.510;11.934;2023-08-24T02:53:50;100704.78;;;18.37;99.91
18533;BME280;9396;51.510;11.934;2023-08-24T02:56:17;100711.63;;;18.39;100.00
18533;BME280;9396;51.510;11.934;2023-08-24T02:58:43;100707.91;;;18.40;100.00
18533;BME280;9396;51.510;11.934;2023-08-24T03:01:10;100712.28;;;18.41;100.00
18533;BME280;9396;51.510;11.934;2023-08-24T03:03:37;100710.44;;;18.42;99.98
18533;BME280;9396;51.510;11.934;2023-08-24T03:06:05;100711.63;;;18.39;99.86
18533;BME280;9396;51.510;11.934;2023-08-24T03:08:33;100714.50;;;18.38;99.81
18533;BME280;9396;51.510;11.934;2023-08-24T03:11:02;100716.75;;;18.34;99.90
18533;BME280;9396;51.510;11.934;2023-08-24T03:13:30;100721.50;;;18.32;99.88
18533;BME280;9396;51.510;11.934;2023-08-24T03:15:57;100701.13;;;18.23;100.00
18533;BME280;9396;51.510;11.934;2023-08-24T03:18:23;100705.56;;;18.31;100.00
18533;BME280;9396;51.510;11.934;2023-08-24T03:20:50;100709.72;;;18.33;100.00
18533;BME280;9396;51.510;11.934;2023-08-24T03:23:17;100700.19;;;18.37;99.99
18533;BME280;9396;51.510;11.934;2023-08-24T03:25:44;100700.81;;;18.33;100.00
18533;BME280;9396;51.510;11.934;2023-08-24T03:28:12;100698.31;;;18.31;100.00
18533;BME280;9396;51.510;11.934;2023-08-24T03:30:44;100695.81;;;18.30;100.00
18533;BME280;9396;51.510;11.934;2023-08-24T03:33:21;100696.00;;;18.28;100.00
18533;BME280;9396;51.510;11.934;2023-08-24T03:35:47;100689.59;;;18.29;99.94
18533;BME280;9396;51.510;11.934;2023-08-24T03:38:14;100686.25;;;18.27;99.73
18533;BME280;9396;51.510;11.934;2023-08-24T03:40:41;100688.31;;;18.25;99.61
18533;BME280;9396;51.510;11.934;2023-08-24T03:43:08;100695.94;;;18.22;99.79
18533;BME280;9396;51.510;11.934;2023-08-24T03:45:36;100694.50;;;18.19;99.43
18533;BME280;9396;51.510;11.934;2023-08-24T03:48:03;100702.94;;;18.16;99.46
18533;BME280;9396;51.510;11.934;2023-08-24T03:50:29;100694.66;;;18.17;99.69
18533;BME280;9396;51.510;11.934;2023-08-24T03:52:56;100686.78;;;18.16;100.00
18533;BME280;9396;51.510;11.934;2023-08-24T03:55:23;100694.00;;;18.09;100.00
18533;BME280;9396;51.510;11.934;2023-08-24T03:57:49;100689.56;;;18.01;100.00
18533;BME280;9396;51.510;11.934;2023-08-24T04:00:16;100698.03;;;17.98;100.00
18533;BME280;9396;51.510;11.934;2023-08-24T04:02:45;100690.41;;;18.02;100.00
18533;BME280;9396;51.510;11.934;2023-08-24T04:05:11;100692.25;;;18.01;100.00
18533;BME280;9396;51.510;11.934;2023-08-24T04:07:38;100700.78;;;18.05;100.00
18533;BME280;9396;51.510;11.934;2023-08-24T04:10:07;100697.09;;;18.06;100.00
18533;BME280;9396;51.510;11.934;2023-08-24T04:12:34;100689.66;;;18.08;100.00
18533;BME280;9396;51.510;11.934;2023-08-24T04:15:01;100701.06;;;18.10;100.00
18533;BME280;9396;51.510;11.934;2023-08-24T04:17:28;100691.94;;;18.11;100.00
18533;BME280;9396;51.510;11.934;2023-08-24T04:19:56;100694.19;;;18.07;100.00
18533;BME280;9396;51.510;11.934;2023-08-24T04:22:22;100691.91;;;18.04;100.00
18533;BME280;9396;51.510;11.934;2023-08-24T04:24:49;100694.38;;;18.06;100.00
18533;BME280;9396;51.510;11.934;2023-08-24T04:27:16;100704.13;;;18.07;100.00
18533;BME280;9396;51.510;11.934;2023-08-24T04:29:42;100713.03;;;18.07;100.00
18533;BME280;9396;51.510;11.934;2023-08-24T04:32:09;100705.81;;;18.08;100.00
18533;BME280;9396;51.510;11.934;2023-08-24T04:34:35;100700.00;;;18.11;100.00
18533;BME280;9396;51.510;11.934;2023-08-24T04:37:05;100707.09;;;18.12;100.00
18533;BME280;9396;51.510;11.934;2023-08-24T04:39:32;100706.69;;;18.15;100.00
18533;BME280;9396;51.510;11.934;2023-08-24T04:41:59;100707.91;;;18.12;100.00
18533;BME280;9396;51.510;11.934;2023-08-24T04:44:25;100712.47;;;18.12;100.00
18533;BME280;9396;51.510;11.934;2023-08-24T04:46:52;100709.78;;;18.12;100.00
18533;BME280;9396;51.510;11.934;2023-08-24T04:49:18;100701.88;;;18.10;100.00
18533;BME280;9396;51.510;11.934;2023-08-24T04:51:45;100711.22;;;18.14;100.00
18533;BME280;9396;51.510;11.934;2023-08-24T04:54:13;100703.78;;;18.16;100.00
18533;BME280;9396;51.510;11.934;2023-08-24T04:56:40;100700.91;;;18.18;100.00
18533;BME280;9396;51.510;11.934;2023-08-24T04:59:06;100707.97;;;18.19;100.00
18533;BME280;9396;51.510;11.934;2023-08-24T05:01:33;100702.19;;;18.22;100.00
18533;BME280;9396;51.510;11.934;2023-08-24T05:04:00;100707.81;;;18.27;100.00
18533;BME280;9396;51.510;11.934;2023-08-24T05:06:27;100706.59;;;18.30;100.00
18533;BME280;9396;51.510;11.934;2023-08-24T05:08:54;100708.25;;;18.31;100.00
18533;BME280;9396;51.510;11.934;2023-08-24T05:11:24;100712.16;;;18.28;100.00
18533;BME280;9396;51.510;11.934;2023-08-24T05:13:51;100709.09;;;18.31;100.00
18533;BME280;9396;51.510;11.934;2023-08-24T05:16:18;100712.22;;;18.35;100.00
18533;BME280;9396;51.510;11.934;2023-08-24T05:18:45;100710.16;;;18.37;100.00
18533;BME280;9396;51.510;11.934;2023-08-24T05:21:12;100708.59;;;18.42;100.00
18533;BME280;9396;51.510;11.934;2023-08-24T05:23:39;100699.13;;;18.53;100.00
18533;BME280;9396;51.510;11.934;2023-08-24T05:26:05;100708.53;;;18.70;100.00
18533;BME280;9396;51.510;11.934;2023-08-24T05:28:33;100713.63;;;18.92;100.00
18533;BME280;9396;51.510;11.934;2023-08-24T05:31:00;100715.00;;;19.22;100.00
18533;BME280;9396;51.510;11.934;2023-08-24T05:33:27;100715.38;;;19.73;100.00
18533;BME280;9396;51.510;11.934;2023-08-24T05:35:56;100699.00;;;20.40;96.19
18533;BME280;9396;51.510;11.934;2023-08-24T05:38:23;100692.88;;;20.84;92.91
18533;BME280;9396;51.510;11.934;2023-08-24T05:40:49;100693.22;;;21.13;91.71
18533;BME280;9396;51.510;11.934;2023-08-24T05:43:16;100699.53;;;21.39;92.23
18533;BME280;9396;51.510;11.934;2023-08-24T05:45:45;100692.22;;;21.77;91.33
18533;BME280;9396;51.510;11.934;2023-08-24T05:48:12;100697.38;;;22.34;88.94
18533;BME280;9396;51.510;11.934;2023-08-24T05:50:42;100683.97;;;23.00;86.72
18533;BME280;9396;51.510;11.934;2023-08-24T05:53:09;100689.34;;;23.95;84.71
18533;BME280;9396;51.510;11.934;2023-08-24T05:55:36;100686.09;;;24.74;81.32
18533;BME280;9396;51.510;11.934;2023-08-24T05:58:03;100683.31;;;25.37;79.42
18533;BME280;9396;51.510;11.934;2023-08-24T06:00:30;100677.38;;;25.85;78.23
18533;BME280;9396;51.510;11.934;2023-08-24T06:02:58;100684.19;;;26.32;76.15
18533;BME280;9396;51.510;11.934;2023-08-24T06:05:24;100683.44;;;26.91;75.17
18533;BME280;9396;51.510;11.934;2023-08-24T06:07:51;100682.41;;;27.67;73.74
18533;BME280;9396;51.510;11.934;2023-08-24T06:10:18;100682.78;;;28.39;70.91
18533;BME280;9396;51.510;11.934;2023-08-24T06:12:45;100673.06;;;29.15;69.09
18533;BME280;9396;51.510;11.934;2023-08-24T06:15:11;100675.44;;;29.83;67.01
18533;BME280;9396;51.510;11.934;2023-08-24T06:17:38;100666.06;;;30.24;64.96
18533;BME280;9396;51.510;11.934;2023-08-24T06:20:08;100662.66;;;30.93;64.70
18533;BME280;9396;51.510;11.934;2023-08-24T06:22:36;100667.94;;;31.43;63.36
18533;BME280;9396;51.510;11.934;2023-08-24T06:25:04;100667.50;;;31.70;62.15
18533;BME280;9396;51.510;11.934;2023-08-24T06:27:31;100659.13;;;32.18;61.59
18533;BME280;9396;51.510;11.934;2023-08-24T06:29:57;100652.63;;;32.33;61.60
18533;BME280;9396;51.510;11.934;2023-08-24T06:32:24;100638.09;;;32.56;60.34
18533;BME280;9396;51.510;11.934;2023-08-24T06:34:51;100638.16;;;32.51;61.41
18533;BME280;9396;51.510;11.934;2023-08-24T06:37:19;100635.66;;;31.10;65.19
18533;BME280;9396;51.510;11.934;2023-08-24T06:39:45;100642.66;;;31.41;64.52
18533;BME280;9396;51.510;11.934;2023-08-24T06:42:12;100642.41;;;31.37;63.62
18533;BME280;9396;51.510;11.934;2023-08-24T06:44:38;100642.31;;;31.91;62.64
18533;BME280;9396;51.510;11.934;2023-08-24T06:47:05;100649.88;;;32.33;61.50
18533;BME280;9396;51.510;11.934;2023-08-24T06:49:32;100642.78;;;33.03;60.90
18533;BME280;9396;51.510;11.934;2023-08-24T06:51:58;100653.03;;;31.88;59.58
18533;BME280;9396;51.510;11.934;2023-08-24T06:54:26;100665.66;;;32.56;60.74
18533;BME280;9396;51.510;11.934;2023-08-24T06:56:53;100655.00;;;32.97;60.52
18533;BME280;9396;51.510;11.934;2023-08-24T06:59:19;100658.97;;;32.33;58.58
18533;BME280;9396;51.510;11.934;2023-08-24T07:01:46;100660.53;;;32.44;58.76
18533;BME280;9396;51.510;11.934;2023-08-24T07:04:13;100659.38;;;32.74;59.76
18533;BME280;9396;51.510;11.934;2023-08-24T07:06:40;100662.69;;;33.18;59.52
18533;BME280;9396;51.510;11.934;2023-08-24T07:09:07;100667.59;;;33.45;59.25
18533;BME280;9396;51.510;11.934;2023-08-24T07:11:36;100674.75;;;33.83;57.86
18533;BME280;9396;51.510;11.934;2023-08-24T07:14:02;100667.38;;;34.11;57.38
18533;BME280;9396;51.510;11.934;2023-08-24T07:16:29;100669.94;;;34.07;57.17
18533;BME280;9396;51.510;11.934;2023-08-24T07:18:56;100673.53;;;33.89;58.92
18533;BME280;9396;51.510;11.934;2023-08-24T07:21:22;100677.38;;;33.14;58.36
18533;BME280;9396;51.510;11.934;2023-08-24T07:23:49;100675.16;;;32.40;59.97
18533;BME280;9396;51.510;11.934;2023-08-24T07:26:16;100664.78;;;32.61;60.66
18533;BME280;9396;51.510;11.934;2023-08-24T07:28:44;100649.38;;;32.31;61.20
18533;BME280;9396;51.510;11.934;2023-08-24T07:31:11;100657.56;;;32.41;58.97
18533;BME280;9396;51.510;11.934;2023-08-24T07:33:38;100651.09;;;32.50;58.62
18533;BME280;9396;51.510;11.934;2023-08-24T07:36:05;100643.94;;;31.53;59.80
18533;BME280;9396;51.510;11.934;2023-08-24T07:38:32;100653.09;;;31.83;62.04
18533;BME280;9396;51.510;11.934;2023-08-24T07:40:58;100645.16;;;31.32;62.51
18533;BME280;9396;51.510;11.934;2023-08-24T07:43:25;100637.56;;;31.14;63.19
18533;BME280;9396;51.510;11.934;2023-08-24T07:45:53;100635.91;;;30.39;63.27
18533;BME280;9396;51.510;11.934;2023-08-24T07:48:20;100634.72;;;29.15;64.38
18533;BME280;9396;51.510;11.934;2023-08-24T07:50:46;100632.69;;;28.95;66.84
18533;BME280;9396;51.510;11.934;2023-08-24T07:53:13;100628.84;;;28.91;67.27
18533;BME280;9396;51.510;11.934;2023-08-24T07:55:40;100628.88;;;28.44;68.12
18533;BME280;9396;51.510;11.934;2023-08-24T07:58:07;100625.38;;;27.81;69.47
18533;BME280;9396;51.510;11.934;2023-08-24T08:00:33;100616.78;;;27.67;70.05
18533;BME280;9396;51.510;11.934;2023-08-24T08:03:02;100624.91;;;27.57;71.01
18533;BME280;9396;51.510;11.934;2023-08-24T08:05:28;100621.44;;;27.40;72.31
18533;BME280;9396;51.510;11.934;2023-08-24T08:07:55;100624.34;;;27.07;71.89
18533;BME280;9396;51.510;11.934;2023-08-24T08:10:21;100623.28;;;26.65;71.26
18533;BME280;9396;51.510;11.934;2023-08-24T08:12:48;100622.94;;;26.23;73.63
18533;BME280;9396;51.510;11.934;2023-08-24T08:15:15;100616.91;;;26.21;74.62
18533;BME280;9396;51.510;11.934;2023-08-24T08:17:41;100625.53;;;26.13;76.75
18533;BME280;9396;51.510;11.934;2023-08-24T08:20:10;100617.56;;;26.11;75.52
18533;BME280;9396;51.510;11.934;2023-08-24T08:22:37;100633.63;;;26.08;77.19
18533;BME280;9396;51.510;11.934;2023-08-24T08:25:05;100619.22;;;25.96;75.41
18533;BME280;9396;51.510;11.934;2023-08-24T08:27:31;100616.16;;;25.92;76.50
18533;BME280;9396;51.510;11.934;2023-08-24T08:29:59;100615.75;;;25.67;76.85
18533;BME280;9396;51.510;11.934;2023-08-24T08:32:25;100623.34;;;25.65;76.83
18533;BME280;9396;51.510;11.934;2023-08-24T08:34:53;100628.25;;;25.63;79.02
18533;BME280;9396;51.510;11.934;2023-08-24T08:37:21;100625.97;;;25.60;80.33
18533;BME280;9396;51.510;11.934;2023-08-24T08:39:48;100629.47;;;25.56;78.95
18533;BME280;9396;51.510;11.934;2023-08-24T08:42:14;100641.31;;;25.50;80.09
18533;BME280;9396;51.510;11.934;2023-08-24T08:44:42;100625.75;;;25.33;80.02
18533;BME280;9396;51.510;11.934;2023-08-24T08:47:10;100639.94;;;25.47;80.39
18533;BME280;9396;51.510;11.934;2023-08-24T08:49:38;100624.97;;;25.50;79.63
18533;BME280;9396;51.510;11.934;2023-08-24T08:52:05;100628.28;;;25.52;80.42
18533;BME280;9396;51.510;11.934;2023-08-24T08:54:33;100623.00;;;25.45;81.00
18533;BME280;9396;51.510;11.934;2023-08-24T08:57:01;100628.78;;;25.49;80.31
18533;BME280;9396;51.510;11.934;2023-08-24T08:59:28;100628.78;;;25.49;81.53
18533;BME280;9396;51.510;11.934;2023-08-24T09:01:56;100626.59;;;25.34;79.52
18533;BME280;9396;51.510;11.934;2023-08-24T09:04:24;100624.81;;;25.39;80.98
18533;BME280;9396;51.510;11.934;2023-08-24T09:06:50;100615.41;;;25.47;80.73
18533;BME280;9396;51.510;11.934;2023-08-24T09:09:18;100611.44;;;25.55;78.36
18533;BME280;9396;51.510;11.934;2023-08-24T09:11:46;100604.69;;;25.57;79.38
18533;BME280;9396;51.510;11.934;2023-08-24T09:14:13;100596.66;;;25.67;80.28
18533;BME280;9396;51.510;11.934;2023-08-24T09:16:41;100608.22;;;25.74;80.52
18533;BME280;9396;51.510;11.934;2023-08-24T09:19:10;100600.88;;;25.75;80.75
18533;BME280;9396;51.510;11.934;2023-08-24T09:21:38;100598.66;;;25.72;80.10
18533;BME280;9396;51.510;11.934;2023-08-24T09:24:07;100590.22;;;25.57;80.19
18533;BME280;9396;51.510;11.934;2023-08-24T09:26:35;100581.66;;;25.65;80.89
18533;BME280;9396;51.510;11.934;2023-08-24T09:29:12;100579.97;;;25.64;81.28
18533;BME280;9396;51.510;11.934;2023-08-24T09:31:40;100563.06;;;25.62;82.59
18533;BME280;9396;51.510;11.934;2023-08-24T09:34:09;100571.56;;;25.65;83.27
18533;BME280;9396;51.510;11.934;2023-08-24T09:36:36;100566.84;;;25.61;83.62
18533;BME280;9396;51.510;11.934;2023-08-24T09:39:04;100564.38;;;25.59;82.90
18533;BME280;9396;51.510;11.934;2023-08-24T09:41:38;100567.38;;;25.58;83.71
18533;BME280;9396;51.510;11.934;2023-08-24T09:44:05;100562.97;;;25.57;83.03
18533;BME280;9396;51.510;11.934;2023-08-24T09:46:34;100562.72;;;25.58;82.63
18533;BME280;9396;51.510;11.934;2023-08-24T09:49:00;100557.03;;;25.60;81.13
18533;BME280;9396;51.510;11.934;2023-08-24T09:51:27;100556.78;;;25.61;82.03
18533;BME280;9396;51.510;11.934;2023-08-24T09:53:57;100545.63;;;25.63;81.82
18533;BME280;9396;51.510;11.934;2023-08-24T09:56:25;100546.63;;;25.57;81.19
18533;BME280;9396;51.510;11.934;2023-08-24T09:58:53;100544.41;;;25.54;80.72
18533;BME280;9396;51.510;11.934;2023-08-24T10:01:21;100532.00;;;25.63;81.16
18533;BME280;9396;51.510;11.934;2023-08-24T10:03:51;100530.34;;;25.62;80.00
18533;BME280;9396;51.510;11.934;2023-08-24T10:06:20;100527.63;;;25.62;79.55
18533;BME280;9396;51.510;11.934;2023-08-24T10:08:51;100524.50;;;25.70;82.32
18533;BME280;9396;51.510;11.934;2023-08-24T10:11:23;100514.81;;;25.62;78.74
18533;BME280;9396;51.510;11.934;2023-08-24T10:13:57;100506.72;;;25.67;79.14
18533;BME280;9396;51.510;11.934;2023-08-24T10:16:27;100490.63;;;25.66;78.40
18533;BME280;9396;51.510;11.934;2023-08-24T10:18:57;100496.00;;;25.77;80.08
18533;BME280;9396;51.510;11.934;2023-08-24T10:21:24;100507.03;;;25.87;79.32
18533;BME280;9396;51.510;11.934;2023-08-24T10:23:52;100499.94;;;25.86;78.87
18533;BME280;9396;51.510;11.934;2023-08-24T10:26:20;100498.00;;;25.87;79.31
18533;BME280;9396;51.510;11.934;2023-08-24T10:28:47;100481.66;;;25.87;79.54
18533;BME280;9396;51.510;11.934;2023-08-24T10:31:16;100482.50;;;25.87;80.71
18533;BME280;9396;51.510;11.934;2023-08-24T10:33:45;100473.16;;;25.83;78.92
18533;BME280;9396;51.510;11.934;2023-08-24T10:36:14;100477.81;;;25.83;78.48
18533;BME280;9396;51.510;11.934;2023-08-24T10:38:42;100475.16;;;25.88;79.96
18533;BME280;9396;51.510;11.934;2023-08-24T10:41:10;100475.63;;;25.85;78.87
18533;BME280;9396;51.510;11.934;2023-08-24T10:43:40;100470.50;;;25.88;79.54
18533;BME280;9396;51.510;11.934;2023-08-24T10:46:11;100469.44;;;25.89;81.09
18533;BME280;9396;51.510;11.934;2023-08-24T10:48:58;100460.88;;;25.81;78.73
18533;BME280;9396;51.510;11.934;2023-08-24T10:51:27;100453.44;;;25.76;80.93
18533;BME280;9396;51.510;11.934;2023-08-24T10:53:56;100450.72;;;25.76;79.26
18533;BME280;9396;51.510;11.934;2023-08-24T10:56:35;100460.28;;;25.79;79.88
18533;BME280;9396;51.510;11.934;2023-08-24T10:59:15;100462.94;;;25.74;77.10
18533;BME280;9396;51.510;11.934;2023-08-24T11:01:53;100455.25;;;25.71;77.89
18533;BME280;9396;51.510;11.934;2023-08-24T11:04:20;100449.72;;;25.82;79.25
18533;BME280;9396;51.510;11.934;2023-08-24T11:06:53;100453.00;;;25.84;78.77
18533;BME280;9396;51.510;11.934;2023-08-24T11:09:20;100445.47;;;25.91;78.80
18533;BME280;9396;51.510;11.934;2023-08-24T11:11:55;100435.72;;;25.95;80.78
18533;BME280;9396;51.510;11.934;2023-08-24T11:14:23;100433.88;;;25.79;77.93
18533;BME280;9396;51.510;11.934;2023-08-24T11:16:52;100432.00;;;25.85;79.24
18533;BME280;9396;51.510;11.934;2023-08-24T11:19:19;100437.47;;;25.85;79.50
18533;BME280;9396;51.510;11.934;2023-08-24T11:21:46;100439.50;;;25.94;81.43
18533;BME280;9396;51.510;11.934;2023-08-24T11:24:15;100437.41;;;26.01;79.09
18533;BME280;9396;51.510;11.934;2023-08-24T11:26:42;100444.22;;;25.99;76.69
18533;BME280;9396;51.510;11.934;2023-08-24T11:29:10;100440.50;;;26.05;77.20
18533;BME280;9396;51.510;11.934;2023-08-24T11:31:37;100436.75;;;26.11;80.13
18533;BME280;9396;51.510;11.934;2023-08-24T11:34:04;100439.22;;;26.12;76.33
18533;BME280;9396;51.510;11.934;2023-08-24T11:36:41;100450.31;;;26.27;77.00
18533;BME280;9396;51.510;11.934;2023-08-24T11:39:16;100456.03;;;26.26;76.25
18533;BME280;9396;51.510;11.934;2023-08-24T11:41:56;100450.19;;;26.39;78.87
18533;BME280;9396;51.510;11.934;2023-08-24T11:44:23;100455.13;;;26.42;76.78
18533;BME280;9396;51.510;11.934;2023-08-24T11:46:50;100449.97;;;26.45;76.07
18533;BME280;9396;51.510;11.934;2023-08-24T11:49:17;100459.25;;;26.44;75.82
18533;BME280;9396;51.510;11.934;2023-08-24T11:51:43;100442.41;;;26.53;77.64
18533;BME280;9396;51.510;11.934;2023-08-24T11:54:11;100439.50;;;26.59;76.93
18533;BME280;9396;51.510;11.934;2023-08-24T11:56:42;100436.19;;;26.57;74.63
18533;BME280;9396;51.510;11.934;2023-08-24T11:59:12;100438.09;;;26.57;77.07
18533;BME280;9396;51.510;11.934;2023-08-24T12:01:39;100446.53;;;26.55;75.63
18533;BME280;9396;51.510;11.934;2023-08-24T12:04:06;100451.41;;;26.53;73.75
18533;BME280;9396;51.510;11.934;2023-08-24T12:06:33;100449.56;;;26.59;73.51
18533;BME280;9396;51.510;11.934;2023-08-24T12:08:59;100447.41;;;26.61;73.94
18533;BME280;9396;51.510;11.934;2023-08-24T12:11:28;100437.63;;;26.65;73.64
18533;BME280;9396;51.510;11.934;2023-08-24T12:13:56;100438.28;;;26.72;75.31
18533;BME280;9396;51.510;11.934;2023-08-24T12:16:23;100432.03;;;26.76;76.94
18533;BME280;9396;51.510;11.934;2023-08-24T12:18:51;100422.22;;;26.75;72.53
18533;BME280;9396;51.510;11.934;2023-08-24T12:21:19;100419.78;;;26.79;72.03
18533;BME280;9396;51.510;11.934;2023-08-24T12:23:55;100401.59;;;26.63;69.92
18533;BME280;9396;51.510;11.934;2023-08-24T12:26:22;100409.06;;;26.72;71.01
18533;BME280;9396;51.510;11.934;2023-08-24T12:28:49;100400.38;;;26.75;71.81
18533;BME280;9396;51.510;11.934;2023-08-24T12:31:19;100400.88;;;26.72;71.01
18533;BME280;9396;51.510;11.934;2023-08-24T12:33:56;100399.00;;;26.78;71.01
18533;BME280;9396;51.510;11.934;2023-08-24T12:36:24;100384.03;;;26.80;71.82
18533;BME280;9396;51.510;11.934;2023-08-24T12:38:50;100376.91;;;26.79;71.19
18533;BME280;9396;51.510;11.934;2023-08-24T12:41:17;100381.00;;;26.77;69.47
18533;BME280;9396;51.510;11.934;2023-08-24T12:43:44;100376.56;;;26.71;68.74
18533;BME280;9396;51.510;11.934;2023-08-24T12:46:10;100367.16;;;26.62;67.49
18533;BME280;9396;51.510;11.934;2023-08-24T12:48:38;100357.59;;;26.59;67.84
18533;BME280;9396;51.510;11.934;2023-08-24T12:51:05;100358.94;;;26.57;65.92